sensor_id;sensor_type;location;lat;lon;timestamp;P1;durP1;ratioP1;P2;durP2;ratioP2
56631;SDS011;42503;39.928;-75.152;2023-05-16T00:06:28;5.28;;;2.78;;
56631;SDS011;42503;39.928;-75.152;2023-05-16T00:16:31;6.03;;;3.70;;
56631;SDS011;42503;39.928;-75.152;2023-05-16T00:26:33;6.03;;;3.92;;
56631;SDS011;42503;39.928;-75.152;2023-05-16T00:36:34;5.40;;;3.38;;
56631;SDS011;42503;39.928;-75.152;2023-05-16T00:46:36;4.55;;;3.47;;
56631;SDS011;42503;39.928;-75.152;2023-05-16T00:56:40;6.30;;;3.40;;
56631;SDS011;42503;39.928;-75.152;2023-05-16T01:06:42;6.15;;;3.20;;
56631;SDS011;42503;39.928;-75.152;2023-05-16T01:16:53;5.00;;;3.47;;
56631;SDS011;42503;39.928;-75.152;2023-05-16T01:27:15;5.32;;;3.40;;
56631;SDS011;42503;39.928;-75.152;2023-05-16T01:47:27;5.85;;;3.58;;
56631;SDS011;42503;39.928;-75.152;2023-05-16T01:57:32;7.75;;;3.90;;
56631;SDS011;42503;39.928;-75.152;2023-05-16T02:07:35;6.28;;;3.90;;
56631;SDS011;42503;39.928;-75.152;2023-05-16T02:17:40;8.18;;;3.78;;
56631;SDS011;42503;39.928;-75.152;2023-05-16T02:27:42;5.47;;;3.70;;
56631;SDS011;42503;39.928;-75.152;2023-05-16T02:37:44;7.65;;;3.40;;
56631;SDS011;42503;39.928;-75.152;2023-05-16T02:47:45;5.82;;;3.53;;
56631;SDS011;42503;39.928;-75.152;2023-05-16T02:57:46;6.65;;;3.20;;
56631;SDS011;42503;39.928;-75.152;2023-05-16T03:07:48;9.65;;;4.10;;
56631;SDS011;42503;39.928;-75.152;2023-05-16T03:17:49;13.68;;;4.10;;
56631;SDS011;42503;39.928;-75.152;2023-05-16T03:27:51;12.18;;;4.15;;
56631;SDS011;42503;39.928;-75.152;2023-05-16T03:37:52;8.68;;;4.00;;
56631;SDS011;42503;39.928;-75.152;2023-05-16T03:47:54;6.63;;;3.50;;
56631;SDS011;42503;39.928;-75.152;2023-05-16T03:57:55;6.82;;;3.85;;
56631;SDS011;42503;39.928;-75.152;2023-05-16T04:07:57;4.75;;;3.90;;
56631;SDS011;42503;39.928;-75.152;2023-05-16T04:17:58;7.68;;;4.13;;
56631;SDS011;42503;39.928;-75.152;2023-05-16T04:27:59;6.60;;;4.15;;
56631;SDS011;42503;39.928;-75.152;2023-05-16T04:38:01;4.68;;;3.90;;
56631;SDS011;42503;39.928;-75.152;2023-05-16T04:48:02;4.70;;;4.25;;
56631;SDS011;42503;39.928;-75.152;2023-05-16T04:58:06;8.10;;;4.70;;
56631;SDS011;42503;39.928;-75.152;2023-05-16T05:08:10;6.65;;;4.55;;
56631;SDS011;42503;39.928;-75.152;2023-05-16T05:18:11;6.32;;;4.88;;
56631;SDS011;42503;39.928;-75.152;2023-05-16T05:28:13;6.10;;;4.25;;
56631;SDS011;42503;39.928;-75.152;2023-05-16T05:38:14;4.97;;;4.40;;
56631;SDS011;42503;39.928;-75.152;2023-05-16T05:48:15;6.50;;;4.57;;
56631;SDS011;42503;39.928;-75.152;2023-05-16T05:58:17;5.70;;;4.03;;
56631;SDS011;42503;39.928;-75.152;2023-05-16T06:08:18;8.75;;;4.78;;
56631;SDS011;42503;39.928;-75.152;2023-05-16T06:18:20;6.97;;;4.35;;
56631;SDS011;42503;39.928;-75.152;2023-05-16T06:28:21;5.85;;;4.47;;
56631;SDS011;42503;39.928;-75.152;2023-05-16T06:38:23;8.00;;;4.30;;
56631;SDS011;42503;39.928;-75.152;2023-05-16T06:48:25;6.03;;;4.13;;
56631;SDS011;42503;39.928;-75.152;2023-05-16T06:58:26;5.55;;;4.82;;
56631;SDS011;42503;39.928;-75.152;2023-05-16T07:08:27;7.50;;;4.50;;
56631;SDS011;42503;39.928;-75.152;2023-05-16T07:18:29;7.07;;;4.90;;
56631;SDS011;42503;39.928;-75.152;2023-05-16T07:28:30;5.82;;;4.85;;
56631;SDS011;42503;39.928;-75.152;2023-05-16T07:38:31;6.78;;;5.22;;
56631;SDS011;42503;39.928;-75.152;2023-05-16T07:48:36;9.23;;;5.45;;
56631;SDS011;42503;39.928;-75.152;2023-05-16T07:58:37;5.63;;;4.97;;
56631;SDS011;42503;39.928;-75.152;2023-05-16T08:08:41;6.53;;;4.65;;
56631;SDS011;42503;39.928;-75.152;2023-05-16T08:18:46;6.20;;;5.17;;
56631;SDS011;42503;39.928;-75.152;2023-05-16T08:28:47;7.53;;;5.25;;
56631;SDS011;42503;39.928;-75.152;2023-05-16T08:38:49;7.68;;;5.65;;
56631;SDS011;42503;39.928;-75.152;2023-05-16T08:48:51;6.22;;;5.10;;
56631;SDS011;42503;39.928;-75.152;2023-05-16T08:58:53;5.82;;;5.15;;
56631;SDS011;42503;39.928;-75.152;2023-05-16T09:08:57;11.52;;;5.63;;
56631;SDS011;42503;39.928;-75.152;2023-05-16T09:18:59;7.10;;;5.43;;
56631;SDS011;42503;39.928;-75.152;2023-05-16T09:29:01;7.18;;;5.60;;
56631;SDS011;42503;39.928;-75.152;2023-05-16T09:39:11;7.63;;;5.45;;
56631;SDS011;42503;39.928;-75.152;2023-05-16T09:49:15;7.53;;;5.47;;
56631;SDS011;42503;39.928;-75.152;2023-05-16T09:59:17;7.45;;;5.53;;
56631;SDS011;42503;39.928;-75.152;2023-05-16T10:09:18;6.30;;;5.65;;
56631;SDS011;42503;39.928;-75.152;2023-05-16T10:19:22;9.65;;;6.95;;
56631;SDS011;42503;39.928;-75.152;2023-05-16T10:29:26;10.05;;;6.35;;
56631;SDS011;42503;39.928;-75.152;2023-05-16T10:39:28;8.18;;;6.35;;
56631;SDS011;42503;39.928;-75.152;2023-05-16T10:49:33;13.38;;;6.05;;
56631;SDS011;42503;39.928;-75.152;2023-05-16T10:59:41;8.63;;;6.60;;
56631;SDS011;42503;39.928;-75.152;2023-05-16T11:09:52;9.85;;;6.50;;
56631;SDS011;42503;39.928;-75.152;2023-05-16T11:20:03;10.20;;;6.95;;
56631;SDS011;42503;39.928;-75.152;2023-05-16T11:40:07;21.23;;;7.25;;
56631;SDS011;42503;39.928;-75.152;2023-05-16T11:50:14;11.75;;;6.70;;
56631;SDS011;42503;39.928;-75.152;2023-05-16T12:00:28;15.25;;;6.60;;
56631;SDS011;42503;39.928;-75.152;2023-05-16T12:10:30;10.85;;;6.70;;
56631;SDS011;42503;39.928;-75.152;2023-05-16T12:20:33;10.07;;;6.40;;
56631;SDS011;42503;39.928;-75.152;2023-05-16T12:30:44;8.38;;;6.30;;
56631;SDS011;42503;39.928;-75.152;2023-05-16T12:40:47;8.07;;;6.60;;
56631;SDS011;42503;39.928;-75.152;2023-05-16T12:50:48;13.27;;;7.15;;
56631;SDS011;42503;39.928;-75.152;2023-05-16T13:00:50;11.15;;;6.13;;
56631;SDS011;42503;39.928;-75.152;2023-05-16T13:10:52;10.55;;;6.47;;
56631;SDS011;42503;39.928;-75.152;2023-05-16T13:20:56;8.25;;;6.30;;
56631;SDS011;42503;39.928;-75.152;2023-05-16T13:30:58;9.75;;;6.45;;
56631;SDS011;42503;39.928;-75.152;2023-05-16T13:40:59;12.48;;;6.38;;
56631;SDS011;42503;39.928;-75.152;2023-05-16T13:51:01;11.15;;;6.60;;
56631;SDS011;42503;39.928;-75.152;2023-05-16T14:01:06;9.40;;;5.72;;
56631;SDS011;42503;39.928;-75.152;2023-05-16T14:11:08;10.20;;;6.10;;
56631;SDS011;42503;39.928;-75.152;2023-05-16T14:21:09;9.38;;;5.95;;
56631;SDS011;42503;39.928;-75.152;2023-05-16T14:31:11;7.63;;;5.40;;
56631;SDS011;42503;39.928;-75.152;2023-05-16T14:41:16;9.45;;;5.90;;
56631;SDS011;42503;39.928;-75.152;2023-05-16T14:51:18;9.50;;;5.40;;
56631;SDS011;42503;39.928;-75.152;2023-05-16T15:01:19;8.35;;;5.63;;
56631;SDS011;42503;39.928;-75.152;2023-05-16T15:11:21;9.13;;;4.95;;
56631;SDS011;42503;39.928;-75.152;2023-05-16T15:21:23;6.93;;;4.80;;
56631;SDS011;42503;39.928;-75.152;2023-05-16T15:31:24;6.15;;;4.18;;
56631;SDS011;42503;39.928;-75.152;2023-05-16T15:41:26;9.48;;;4.28;;
56631;SDS011;42503;39.928;-75.152;2023-05-16T15:51:27;6.53;;;4.15;;
56631;SDS011;42503;39.928;-75.152;2023-05-16T16:01:31;8.35;;;4.28;;
56631;SDS011;42503;39.928;-75.152;2023-05-16T16:11:33;10.95;;;4.50;;
56631;SDS011;42503;39.928;-75.152;2023-05-16T16:21:35;6.32;;;4.43;;
56631;SDS011;42503;39.928;-75.152;2023-05-16T16:31:36;28.40;;;5.40;;
56631;SDS011;42503;39.928;-75.152;2023-05-16T16:41:40;31.40;;;6.55;;
56631;SDS011;42503;39.928;-75.152;2023-05-16T16:51:44;8.85;;;4.78;;
56631;SDS011;42503;39.928;-75.152;2023-05-16T17:01:46;20.98;;;5.32;;
56631;SDS011;42503;39.928;-75.152;2023-05-16T17:11:53;30.63;;;6.55;;
56631;SDS011;42503;39.928;-75.152;2023-05-16T17:21:55;14.18;;;4.70;;
56631;SDS011;42503;39.928;-75.152;2023-05-16T17:31:56;26.02;;;6.05;;
56631;SDS011;42503;39.928;-75.152;2023-05-16T17:41:57;50.60;;;6.70;;
56631;SDS011;42503;39.928;-75.152;2023-05-16T17:51:59;27.98;;;5.75;;
56631;SDS011;42503;39.928;-75.152;2023-05-16T18:02:00;27.70;;;7.90;;
56631;SDS011;42503;39.928;-75.152;2023-05-16T18:12:03;14.57;;;5.20;;
56631;SDS011;42503;39.928;-75.152;2023-05-16T18:22:05;10.20;;;4.93;;
56631;SDS011;42503;39.928;-75.152;2023-05-16T18:32:08;12.45;;;4.82;;
56631;SDS011;42503;39.928;-75.152;2023-05-16T18:42:12;16.55;;;7.38;;
56631;SDS011;42503;39.928;-75.152;2023-05-16T18:52:13;25.40;;;6.43;;
56631;SDS011;42503;39.928;-75.152;2023-05-16T19:02:15;21.90;;;6.63;;
56631;SDS011;42503;39.928;-75.152;2023-05-16T19:12:16;16.60;;;7.82;;
56631;SDS011;42503;39.928;-75.152;2023-05-16T19:22:20;20.40;;;7.30;;
56631;SDS011;42503;39.928;-75.152;2023-05-16T19:32:21;15.32;;;6.18;;
56631;SDS011;42503;39.928;-75.152;2023-05-16T19:42:23;17.10;;;6.60;;
56631;SDS011;42503;39.928;-75.152;2023-05-16T19:52:27;13.30;;;7.38;;
56631;SDS011;42503;39.928;-75.152;2023-05-16T20:02:29;13.45;;;6.35;;
56631;SDS011;42503;39.928;-75.152;2023-05-16T20:12:31;9.13;;;6.45;;
56631;SDS011;42503;39.928;-75.152;2023-05-16T20:22:32;10.20;;;6.90;;
56631;SDS011;42503;39.928;-75.152;2023-05-16T20:32:38;9.70;;;6.85;;
56631;SDS011;42503;39.928;-75.152;2023-05-16T20:42:42;11.30;;;6.75;;
56631;SDS011;42503;39.928;-75.152;2023-05-16T20:52:43;11.00;;;6.95;;
56631;SDS011;42503;39.928;-75.152;2023-05-16T21:02:45;13.38;;;6.28;;
56631;SDS011;42503;39.928;-75.152;2023-05-16T21:12:47;9.63;;;6.68;;
56631;SDS011;42503;39.928;-75.152;2023-05-16T21:22:49;8.85;;;5.72;;
56631;SDS011;42503;39.928;-75.152;2023-05-16T21:32:51;10.07;;;6.55;;
56631;SDS011;42503;39.928;-75.152;2023-05-16T21:42:52;8.80;;;6.65;;
56631;SDS011;42503;39.928;-75.152;2023-05-16T21:52:53;9.75;;;6.00;;
56631;SDS011;42503;39.928;-75.152;2023-05-16T22:02:55;8.65;;;6.13;;
56631;SDS011;42503;39.928;-75.152;2023-05-16T22:12:56;10.18;;;5.82;;
56631;SDS011;42503;39.928;-75.152;2023-05-16T22:22:57;7.82;;;5.82;;
56631;SDS011;42503;39.928;-75.152;2023-05-16T22:32:59;6.78;;;5.97;;
56631;SDS011;42503;39.928;-75.152;2023-05-16T22:43:00;9.00;;;6.65;;
56631;SDS011;42503;39.928;-75.152;2023-05-16T22:53:01;6.95;;;5.43;;
56631;SDS011;42503;39.928;-75.152;2023-05-16T23:03:03;6.55;;;5.35;;
56631;SDS011;42503;39.928;-75.152;2023-05-16T23:13:04;8.65;;;5.60;;
56631;SDS011;42503;39.928;-75.152;2023-05-16T23:23:05;8.65;;;6.65;;
56631;SDS011;42503;39.928;-75.152;2023-05-16T23:33:14;6.70;;;5.70;;
56631;SDS011;42503;39.928;-75.152;2023-05-16T23:43:16;7.30;;;6.07;;
56631;SDS011;42503;39.928;-75.152;2023-05-16T23:53:18;7.45;;;6.28;;
